Airfield :
LOGIN :

Register | Disclaimer

   EN    FR    IT 

 










Legend :    VFR   Marginal VFR   IFR   Intensive IFR   Very Intensive IFR
Visi :
Ceiling :
>= 8 km
>= 3000ft
5 to 8 km
1000 to 3000 ft
1500m to 5 km
500 to 1000 ft
800 to 1500m
200 to 500 ft
< 800m
< 200 ft
Symbols :   Thunderstorms  Fog  Heavy snow  Heavy precipitations  Wind > 20 kt
SIGMETs :     Misc.  Thunderstorms  Icing  Turbulence  Mountain Waves  Volcanic Ashes






- Airport Elevation : 1966 ft
- IATA code : SGE


EDGS - Siegerland

CURRENT METAR :
  • 291620Z 29006KT 0150 R13/0175N -DZ FG OVC001 10/10 Q1017

EXPIRED METARs :
  • 291550Z 27006KT 0400 R13/0375V0700N -DZ FG OVC001 11/11 Q1017
  • 291520Z 27006KT 0900 R13/0800V1900U -DZ FG OVC001 11/11 Q1017
  • 291450Z 26006KT 0250 R13/0300V0500N -DZ FG OVC001 11/11 Q1017
  • 291420Z 25006KT 220V290 0300 R13/0400V0750D -DZ FG OVC001 11/11 Q1017

TAF TAF EDGS
Valid from the 29 at 15:00 until the 30 at 00:00 UTC


291400Z 2915/2924 24006KT 0700 -DZ FG OVC000
PROB30
TEMPO 2915/2920 1200 BR OVC003



MET'MAP, your aeronautical weather chart ! - Copyright ORBIFLY December 2007 - Disclaimer

ORBIFLY MET'MAP TEAM :

Programming & Development : Alexandra Zaïnal
Concept & original design : Baudouin d'Aumeries
Assistance for programming : Marc-Olivier Méhu
Technical & hardware support : Manuel Goepfert

Contact : metmap@orbifly.com




SOURCES & CREDITS :

   NOAA